Millville, New Jersey
Current Conditions -  °F | °C
As of 11:54 PM on Saturday 25 Oct 2014 (Local Time) from KMIV Reporting Station
Clear Clear  
Wind Chill: 57°   Ceiling: Unl
Heat Index: 57°   Visibility: 10mi
Dew Point: 47°   Wind: 7mph
Humidity: 69%   Direction: NA
Pressure: 29.66"   Gusts: NA
Location:  39.4°N, 75.03°W
Report Text: KMIV 260354Z AUTO VRB06KT 10SM CLR 14/08 A2966 RMK AO2 SLP042 T01390083
Loading
Personal Weather Stations






























Interactive Weather Map
Tropical Storm Tracking
New forecast layout! Learn more

10-Day Weather Forecast

Advertisements
Track Severe Weather on mobile